Terminal Aerodrome Forecast
Issued by NWS Wilmington, OH

Current Version | Previous Version | Text Only | Print | Product List | Glossary Off
Versions: 1 2 3 4 5 6 7 8 9 10 11 12 13 14 15 16 17

138
FTUS41 KILN 270520
TAFCMH
TAF
KCMH 270520Z 2706/2806 19005KT P6SM SKC
     FM271500 22012G20KT P6SM SKC
     FM271700 24014G24KT P6SM FEW050
     FM272300 21006KT P6SM SCT250=

USA.gov is the U.S. government's official web portal to all federal, state and local government web resources and services.